sensor_id;sensor_type;location;lat;lon;timestamp;P1;durP1;ratioP1;P2;durP2;ratioP2
79759;SDS011;69248;42.138;24.742;2023-04-15T00:00:16;7.83;;;5.10;;
79759;SDS011;69248;42.138;24.742;2023-04-15T00:02:43;10.28;;;5.55;;
79759;SDS011;69248;42.138;24.742;2023-04-15T00:05:11;13.95;;;6.40;;
79759;SDS011;69248;42.138;24.742;2023-04-15T00:07:38;9.80;;;5.65;;
79759;SDS011;69248;42.138;24.742;2023-04-15T00:10:06;8.23;;;5.75;;
79759;SDS011;69248;42.138;24.742;2023-04-15T00:12:34;9.10;;;5.87;;
79759;SDS011;69248;42.138;24.742;2023-04-15T00:15:03;8.53;;;5.53;;
79759;SDS011;69248;42.138;24.742;2023-04-15T00:17:31;9.58;;;5.42;;
79759;SDS011;69248;42.138;24.742;2023-04-15T00:19:59;8.00;;;4.37;;
79759;SDS011;69248;42.138;24.742;2023-04-15T00:22:26;8.58;;;5.45;;
79759;SDS011;69248;42.138;24.742;2023-04-15T00:24:54;12.73;;;6.62;;
79759;SDS011;69248;42.138;24.742;2023-04-15T00:27:21;10.95;;;6.90;;
79759;SDS011;69248;42.138;24.742;2023-04-15T00:29:49;12.33;;;6.35;;
79759;SDS011;69248;42.138;24.742;2023-04-15T00:32:17;13.22;;;6.75;;
79759;SDS011;69248;42.138;24.742;2023-04-15T00:34:45;16.05;;;7.17;;
79759;SDS011;69248;42.138;24.742;2023-04-15T00:37:12;13.72;;;7.40;;
79759;SDS011;69248;42.138;24.742;2023-04-15T00:39:40;12.07;;;7.10;;
79759;SDS011;69248;42.138;24.742;2023-04-15T00:42:07;9.65;;;6.95;;
79759;SDS011;69248;42.138;24.742;2023-04-15T00:44:35;12.63;;;7.10;;
79759;SDS011;69248;42.138;24.742;2023-04-15T00:47:03;10.15;;;5.90;;
79759;SDS011;69248;42.138;24.742;2023-04-15T00:49:31;11.18;;;7.45;;
79759;SDS011;69248;42.138;24.742;2023-04-15T00:51:58;7.70;;;5.78;;
79759;SDS011;69248;42.138;24.742;2023-04-15T00:54:26;11.25;;;6.40;;
79759;SDS011;69248;42.138;24.742;2023-04-15T00:56:54;16.00;;;6.70;;
79759;SDS011;69248;42.138;24.742;2023-04-15T00:59:22;8.55;;;5.55;;
79759;SDS011;69248;42.138;24.742;2023-04-15T01:01:50;11.97;;;7.12;;
79759;SDS011;69248;42.138;24.742;2023-04-15T01:04:18;11.22;;;6.85;;
79759;SDS011;69248;42.138;24.742;2023-04-15T01:06:45;8.70;;;6.25;;
79759;SDS011;69248;42.138;24.742;2023-04-15T01:09:13;10.72;;;6.15;;
79759;SDS011;69248;42.138;24.742;2023-04-15T01:11:41;8.70;;;5.30;;
79759;SDS011;69248;42.138;24.742;2023-04-15T01:14:09;9.98;;;6.35;;
79759;SDS011;69248;42.138;24.742;2023-04-15T01:16:37;8.95;;;6.35;;
79759;SDS011;69248;42.138;24.742;2023-04-15T01:19:07;10.13;;;6.33;;
79759;SDS011;69248;42.138;24.742;2023-04-15T01:21:36;8.37;;;5.70;;
79759;SDS011;69248;42.138;24.742;2023-04-15T01:24:07;7.72;;;5.55;;
79759;SDS011;69248;42.138;24.742;2023-04-15T01:26:38;9.10;;;6.15;;
79759;SDS011;69248;42.138;24.742;2023-04-15T01:29:06;8.53;;;5.85;;
79759;SDS011;69248;42.138;24.742;2023-04-15T01:31:34;9.30;;;5.03;;
79759;SDS011;69248;42.138;24.742;2023-04-15T01:34:02;7.22;;;4.72;;
79759;SDS011;69248;42.138;24.742;2023-04-15T01:36:30;13.30;;;5.15;;
79759;SDS011;69248;42.138;24.742;2023-04-15T01:38:57;6.40;;;4.55;;
79759;SDS011;69248;42.138;24.742;2023-04-15T01:41:26;7.53;;;5.15;;
79759;SDS011;69248;42.138;24.742;2023-04-15T01:43:53;9.18;;;5.72;;
79759;SDS011;69248;42.138;24.742;2023-04-15T01:46:21;5.90;;;4.47;;
79759;SDS011;69248;42.138;24.742;2023-04-15T01:48:49;5.33;;;4.08;;
79759;SDS011;69248;42.138;24.742;2023-04-15T01:51:16;9.00;;;4.78;;
79759;SDS011;69248;42.138;24.742;2023-04-15T01:53:44;7.00;;;4.20;;
79759;SDS011;69248;42.138;24.742;2023-04-15T01:56:11;6.42;;;4.03;;
79759;SDS011;69248;42.138;24.742;2023-04-15T01:58:39;6.37;;;4.25;;
79759;SDS011;69248;42.138;24.742;2023-04-15T02:01:07;8.13;;;4.15;;
79759;SDS011;69248;42.138;24.742;2023-04-15T02:03:35;6.65;;;4.92;;
79759;SDS011;69248;42.138;24.742;2023-04-15T02:06:04;6.60;;;4.53;;
79759;SDS011;69248;42.138;24.742;2023-04-15T02:08:31;4.22;;;3.37;;
79759;SDS011;69248;42.138;24.742;2023-04-15T02:10:59;5.65;;;3.17;;
79759;SDS011;69248;42.138;24.742;2023-04-15T02:13:27;5.00;;;4.00;;
79759;SDS011;69248;42.138;24.742;2023-04-15T02:15:54;5.12;;;3.30;;
79759;SDS011;69248;42.138;24.742;2023-04-15T02:18:22;5.25;;;3.58;;
79759;SDS011;69248;42.138;24.742;2023-04-15T02:20:50;5.55;;;3.00;;
79759;SDS011;69248;42.138;24.742;2023-04-15T02:23:18;6.05;;;3.42;;
79759;SDS011;69248;42.138;24.742;2023-04-15T02:25:45;5.03;;;3.55;;
79759;SDS011;69248;42.138;24.742;2023-04-15T02:28:13;6.58;;;3.67;;
79759;SDS011;69248;42.138;24.742;2023-04-15T02:30:41;6.40;;;3.67;;
79759;SDS011;69248;42.138;24.742;2023-04-15T02:33:08;9.00;;;4.03;;
79759;SDS011;69248;42.138;24.742;2023-04-15T02:35:36;9.23;;;3.98;;
79759;SDS011;69248;42.138;24.742;2023-04-15T02:38:05;6.15;;;3.75;;
79759;SDS011;69248;42.138;24.742;2023-04-15T02:40:33;6.45;;;4.10;;
79759;SDS011;69248;42.138;24.742;2023-04-15T02:43:00;6.95;;;4.10;;
79759;SDS011;69248;42.138;24.742;2023-04-15T02:45:30;6.80;;;4.03;;
79759;SDS011;69248;42.138;24.742;2023-04-15T02:47:57;7.50;;;3.52;;
79759;SDS011;69248;42.138;24.742;2023-04-15T02:50:26;4.30;;;3.20;;
79759;SDS011;69248;42.138;24.742;2023-04-15T02:52:54;6.08;;;3.45;;
79759;SDS011;69248;42.138;24.742;2023-04-15T02:55:21;5.35;;;3.22;;
79759;SDS011;69248;42.138;24.742;2023-04-15T02:57:49;9.78;;;3.62;;
79759;SDS011;69248;42.138;24.742;2023-04-15T03:00:16;6.37;;;3.92;;
79759;SDS011;69248;42.138;24.742;2023-04-15T03:02:45;5.45;;;3.70;;
79759;SDS011;69248;42.138;24.742;2023-04-15T03:05:14;8.25;;;3.25;;
79759;SDS011;69248;42.138;24.742;2023-04-15T03:07:42;5.62;;;3.27;;
79759;SDS011;69248;42.138;24.742;2023-04-15T03:10:09;7.08;;;3.55;;
79759;SDS011;69248;42.138;24.742;2023-04-15T03:12:37;5.78;;;3.75;;
79759;SDS011;69248;42.138;24.742;2023-04-15T03:15:05;3.67;;;3.17;;
79759;SDS011;69248;42.138;24.742;2023-04-15T03:17:33;4.75;;;3.00;;
79759;SDS011;69248;42.138;24.742;2023-04-15T03:20:01;5.33;;;3.50;;
79759;SDS011;69248;42.138;24.742;2023-04-15T03:22:32;5.25;;;2.98;;
79759;SDS011;69248;42.138;24.742;2023-04-15T03:25:00;7.62;;;3.67;;
79759;SDS011;69248;42.138;24.742;2023-04-15T03:27:27;6.87;;;3.33;;
79759;SDS011;69248;42.138;24.742;2023-04-15T03:29:56;6.50;;;2.80;;
79759;SDS011;69248;42.138;24.742;2023-04-15T03:32:24;6.55;;;3.80;;
79759;SDS011;69248;42.138;24.742;2023-04-15T03:34:51;7.33;;;3.40;;
79759;SDS011;69248;42.138;24.742;2023-04-15T03:37:19;10.08;;;4.00;;
79759;SDS011;69248;42.138;24.742;2023-04-15T03:39:46;6.80;;;3.55;;
79759;SDS011;69248;42.138;24.742;2023-04-15T03:42:14;8.63;;;3.42;;
79759;SDS011;69248;42.138;24.742;2023-04-15T03:44:41;19.15;;;4.55;;
79759;SDS011;69248;42.138;24.742;2023-04-15T03:47:09;7.50;;;3.37;;
79759;SDS011;69248;42.138;24.742;2023-04-15T03:49:36;7.28;;;3.35;;
79759;SDS011;69248;42.138;24.742;2023-04-15T03:52:04;5.28;;;3.42;;
79759;SDS011;69248;42.138;24.742;2023-04-15T03:54:32;7.00;;;3.62;;
79759;SDS011;69248;42.138;24.742;2023-04-15T03:56:59;5.58;;;3.50;;
79759;SDS011;69248;42.138;24.742;2023-04-15T03:59:27;8.10;;;3.55;;
79759;SDS011;69248;42.138;24.742;2023-04-15T04:01:54;6.78;;;3.87;;
79759;SDS011;69248;42.138;24.742;2023-04-15T04:04:22;8.93;;;3.83;;
79759;SDS011;69248;42.138;24.742;2023-04-15T04:06:49;7.30;;;3.65;;
79759;SDS011;69248;42.138;24.742;2023-04-15T04:09:17;5.03;;;3.52;;
79759;SDS011;69248;42.138;24.742;2023-04-15T04:11:44;3.87;;;3.42;;
79759;SDS011;69248;42.138;24.742;2023-04-15T04:14:12;5.53;;;3.30;;
79759;SDS011;69248;42.138;24.742;2023-04-15T04:16:39;3.92;;;2.98;;
79759;SDS011;69248;42.138;24.742;2023-04-15T04:19:07;6.72;;;3.40;;
79759;SDS011;69248;42.138;24.742;2023-04-15T04:21:34;5.83;;;3.55;;
79759;SDS011;69248;42.138;24.742;2023-04-15T04:24:03;6.62;;;3.80;;
79759;SDS011;69248;42.138;24.742;2023-04-15T04:26:31;7.12;;;3.52;;
79759;SDS011;69248;42.138;24.742;2023-04-15T04:28:58;8.50;;;3.70;;
79759;SDS011;69248;42.138;24.742;2023-04-15T04:31:26;5.80;;;3.05;;
79759;SDS011;69248;42.138;24.742;2023-04-15T04:33:53;5.95;;;3.52;;
79759;SDS011;69248;42.138;24.742;2023-04-15T04:36:21;9.43;;;3.37;;
79759;SDS011;69248;42.138;24.742;2023-04-15T04:38:48;7.15;;;3.08;;
79759;SDS011;69248;42.138;24.742;2023-04-15T04:41:16;6.60;;;3.05;;
79759;SDS011;69248;42.138;24.742;2023-04-15T04:43:44;7.00;;;3.67;;
79759;SDS011;69248;42.138;24.742;2023-04-15T04:46:11;5.50;;;3.60;;
79759;SDS011;69248;42.138;24.742;2023-04-15T04:48:39;8.10;;;3.52;;
79759;SDS011;69248;42.138;24.742;2023-04-15T04:51:06;9.78;;;3.83;;
79759;SDS011;69248;42.138;24.742;2023-04-15T04:53:34;12.25;;;3.47;;
79759;SDS011;69248;42.138;24.742;2023-04-15T04:56:02;6.47;;;3.55;;
79759;SDS011;69248;42.138;24.742;2023-04-15T04:58:30;10.03;;;4.20;;
79759;SDS011;69248;42.138;24.742;2023-04-15T05:00:57;10.13;;;4.42;;
79759;SDS011;69248;42.138;24.742;2023-04-15T05:03:25;12.13;;;4.12;;
79759;SDS011;69248;42.138;24.742;2023-04-15T05:05:53;9.63;;;3.90;;
79759;SDS011;69248;42.138;24.742;2023-04-15T05:08:20;9.18;;;3.75;;
79759;SDS011;69248;42.138;24.742;2023-04-15T05:10:48;5.80;;;3.22;;
79759;SDS011;69248;42.138;24.742;2023-04-15T05:13:15;11.00;;;4.60;;
79759;SDS011;69248;42.138;24.742;2023-04-15T05:15:43;6.05;;;3.60;;
79759;SDS011;69248;42.138;24.742;2023-04-15T05:18:10;8.88;;;3.80;;
79759;SDS011;69248;42.138;24.742;2023-04-15T05:20:38;10.00;;;3.50;;
79759;SDS011;69248;42.138;24.742;2023-04-15T05:23:06;10.88;;;4.97;;
79759;SDS011;69248;42.138;24.742;2023-04-15T05:25:34;9.38;;;3.77;;
79759;SDS011;69248;42.138;24.742;2023-04-15T05:28:01;7.45;;;4.03;;
79759;SDS011;69248;42.138;24.742;2023-04-15T05:30:29;8.83;;;3.98;;
79759;SDS011;69248;42.138;24.742;2023-04-15T05:32:56;8.08;;;4.30;;
79759;SDS011;69248;42.138;24.742;2023-04-15T05:35:24;6.55;;;4.20;;
79759;SDS011;69248;42.138;24.742;2023-04-15T05:37:51;10.25;;;4.10;;
79759;SDS011;69248;42.138;24.742;2023-04-15T05:40:19;6.85;;;3.52;;
79759;SDS011;69248;42.138;24.742;2023-04-15T05:42:47;10.45;;;3.30;;
79759;SDS011;69248;42.138;24.742;2023-04-15T05:45:14;10.28;;;3.17;;
79759;SDS011;69248;42.138;24.742;2023-04-15T05:47:42;8.80;;;3.40;;
79759;SDS011;69248;42.138;24.742;2023-04-15T05:50:09;4.12;;;3.25;;
79759;SDS011;69248;42.138;24.742;2023-04-15T05:52:37;6.33;;;3.33;;
79759;SDS011;69248;42.138;24.742;2023-04-15T05:55:05;7.00;;;3.30;;
79759;SDS011;69248;42.138;24.742;2023-04-15T05:57:33;5.03;;;3.50;;
79759;SDS011;69248;42.138;24.742;2023-04-15T06:00:01;5.33;;;3.22;;
79759;SDS011;69248;42.138;24.742;2023-04-15T06:02:30;6.25;;;3.30;;
79759;SDS011;69248;42.138;24.742;2023-04-15T06:04:58;5.83;;;3.20;;
79759;SDS011;69248;42.138;24.742;2023-04-15T06:07:25;6.62;;;3.27;;
79759;SDS011;69248;42.138;24.742;2023-04-15T06:09:53;6.45;;;3.45;;
79759;SDS011;69248;42.138;24.742;2023-04-15T06:12:20;6.78;;;3.10;;
79759;SDS011;69248;42.138;24.742;2023-04-15T06:14:48;8.48;;;2.90;;
79759;SDS011;69248;42.138;24.742;2023-04-15T06:17:15;7.05;;;3.02;;
79759;SDS011;69248;42.138;24.742;2023-04-15T06:19:44;8.08;;;3.08;;
79759;SDS011;69248;42.138;24.742;2023-04-15T06:22:11;6.83;;;3.08;;
79759;SDS011;69248;42.138;24.742;2023-04-15T06:24:39;7.72;;;3.00;;
79759;SDS011;69248;42.138;24.742;2023-04-15T06:27:06;4.33;;;3.17;;
79759;SDS011;69248;42.138;24.742;2023-04-15T06:29:34;6.58;;;2.87;;
79759;SDS011;69248;42.138;24.742;2023-04-15T06:32:01;4.08;;;2.62;;
79759;SDS011;69248;42.138;24.742;2023-04-15T06:34:29;7.53;;;2.92;;
79759;SDS011;69248;42.138;24.742;2023-04-15T06:36:56;11.18;;;3.65;;
79759;SDS011;69248;42.138;24.742;2023-04-15T06:39:24;4.35;;;2.50;;
79759;SDS011;69248;42.138;24.742;2023-04-15T06:41:51;9.50;;;3.30;;
79759;SDS011;69248;42.138;24.742;2023-04-15T06:44:19;10.20;;;3.20;;
79759;SDS011;69248;42.138;24.742;2023-04-15T06:46:47;6.62;;;3.00;;
79759;SDS011;69248;42.138;24.742;2023-04-15T06:49:14;7.20;;;3.08;;
79759;SDS011;69248;42.138;24.742;2023-04-15T06:51:42;7.05;;;3.17;;
79759;SDS011;69248;42.138;24.742;2023-04-15T06:54:09;7.42;;;3.90;;
79759;SDS011;69248;42.138;24.742;2023-04-15T06:56:37;6.92;;;2.87;;
79759;SDS011;69248;42.138;24.742;2023-04-15T06:59:04;8.33;;;3.58;;
79759;SDS011;69248;42.138;24.742;2023-04-15T07:01:33;12.50;;;3.45;;
79759;SDS011;69248;42.138;24.742;2023-04-15T07:04:00;8.45;;;4.40;;
79759;SDS011;69248;42.138;24.742;2023-04-15T07:06:28;10.63;;;3.40;;
79759;SDS011;69248;42.138;24.742;2023-04-15T07:08:56;9.98;;;3.58;;
79759;SDS011;69248;42.138;24.742;2023-04-15T07:11:26;10.23;;;3.15;;
79759;SDS011;69248;42.138;24.742;2023-04-15T07:13:54;5.37;;;2.75;;
79759;SDS011;69248;42.138;24.742;2023-04-15T07:16:23;5.40;;;2.85;;
79759;SDS011;69248;42.138;24.742;2023-04-15T07:18:50;8.63;;;3.72;;
79759;SDS011;69248;42.138;24.742;2023-04-15T07:21:18;8.63;;;4.30;;
79759;SDS011;69248;42.138;24.742;2023-04-15T07:23:45;8.05;;;4.30;;
79759;SDS011;69248;42.138;24.742;2023-04-15T07:26:13;8.90;;;3.83;;
79759;SDS011;69248;42.138;24.742;2023-04-15T07:28:40;9.70;;;4.37;;
79759;SDS011;69248;42.138;24.742;2023-04-15T07:31:08;11.95;;;5.40;;
79759;SDS011;69248;42.138;24.742;2023-04-15T07:33:36;8.63;;;4.47;;
79759;SDS011;69248;42.138;24.742;2023-04-15T07:36:03;10.50;;;5.90;;
79759;SDS011;69248;42.138;24.742;2023-04-15T07:38:31;14.70;;;5.78;;
79759;SDS011;69248;42.138;24.742;2023-04-15T07:40:58;7.92;;;4.97;;
79759;SDS011;69248;42.138;24.742;2023-04-15T07:43:26;10.25;;;6.03;;
79759;SDS011;69248;42.138;24.742;2023-04-15T07:45:54;9.25;;;6.20;;
79759;SDS011;69248;42.138;24.742;2023-04-15T07:48:21;9.55;;;6.45;;
79759;SDS011;69248;42.138;24.742;2023-04-15T07:50:50;8.73;;;6.35;;
79759;SDS011;69248;42.138;24.742;2023-04-15T07:53:18;17.35;;;6.47;;
79759;SDS011;69248;42.138;24.742;2023-04-15T07:55:46;8.85;;;5.08;;
79759;SDS011;69248;42.138;24.742;2023-04-15T07:58:13;8.13;;;4.62;;
79759;SDS011;69248;42.138;24.742;2023-04-15T08:00:41;6.10;;;4.03;;
79759;SDS011;69248;42.138;24.742;2023-04-15T08:03:08;10.88;;;5.17;;
79759;SDS011;69248;42.138;24.742;2023-04-15T08:05:36;7.03;;;4.95;;
79759;SDS011;69248;42.138;24.742;2023-04-15T08:08:04;11.63;;;3.77;;
79759;SDS011;69248;42.138;24.742;2023-04-15T08:10:31;9.53;;;3.75;;
79759;SDS011;69248;42.138;24.742;2023-04-15T08:12:59;10.15;;;3.77;;
79759;SDS011;69248;42.138;24.742;2023-04-15T08:15:27;10.53;;;3.72;;
79759;SDS011;69248;42.138;24.742;2023-04-15T08:17:54;5.80;;;3.70;;
79759;SDS011;69248;42.138;24.742;2023-04-15T08:20:22;8.83;;;3.98;;
79759;SDS011;69248;42.138;24.742;2023-04-15T08:22:50;8.45;;;3.67;;
79759;SDS011;69248;42.138;24.742;2023-04-15T08:25:18;4.95;;;3.15;;
79759;SDS011;69248;42.138;24.742;2023-04-15T08:27:46;5.40;;;3.65;;
79759;SDS011;69248;42.138;24.742;2023-04-15T08:30:13;6.45;;;3.70;;
79759;SDS011;69248;42.138;24.742;2023-04-15T08:32:41;9.18;;;4.10;;
79759;SDS011;69248;42.138;24.742;2023-04-15T08:35:11;8.10;;;3.80;;
79759;SDS011;69248;42.138;24.742;2023-04-15T08:37:40;9.38;;;4.20;;
79759;SDS011;69248;42.138;24.742;2023-04-15T08:40:07;9.88;;;4.30;;
79759;SDS011;69248;42.138;24.742;2023-04-15T08:42:36;11.60;;;4.35;;
79759;SDS011;69248;42.138;24.742;2023-04-15T08:45:10;12.85;;;4.25;;
79759;SDS011;69248;42.138;24.742;2023-04-15T08:47:38;12.18;;;4.75;;
79759;SDS011;69248;42.138;24.742;2023-04-15T08:50:08;16.40;;;5.03;;
79759;SDS011;69248;42.138;24.742;2023-04-15T08:52:36;13.20;;;4.60;;
79759;SDS011;69248;42.138;24.742;2023-04-15T08:55:05;21.25;;;5.20;;
79759;SDS011;69248;42.138;24.742;2023-04-15T08:57:35;10.40;;;4.03;;
79759;SDS011;69248;42.138;24.742;2023-04-15T09:00:04;9.43;;;4.72;;
79759;SDS011;69248;42.138;24.742;2023-04-15T09:02:34;10.03;;;4.30;;
79759;SDS011;69248;42.138;24.742;2023-04-15T09:05:01;10.38;;;4.50;;
79759;SDS011;69248;42.138;24.742;2023-04-15T09:07:32;10.40;;;3.95;;
79759;SDS011;69248;42.138;24.742;2023-04-15T09:10:02;8.45;;;4.62;;
79759;SDS011;69248;42.138;24.742;2023-04-15T09:12:30;9.08;;;3.83;;
79759;SDS011;69248;42.138;24.742;2023-04-15T09:14:59;4.75;;;3.17;;
79759;SDS011;69248;42.138;24.742;2023-04-15T09:17:27;11.63;;;4.08;;
79759;SDS011;69248;42.138;24.742;2023-04-15T09:20:09;9.00;;;3.65;;
79759;SDS011;69248;42.138;24.742;2023-04-15T09:22:38;8.05;;;3.20;;
79759;SDS011;69248;42.138;24.742;2023-04-15T09:27:53;11.15;;;4.15;;
79759;SDS011;69248;42.138;24.742;2023-04-15T09:30:26;10.82;;;3.90;;
79759;SDS011;69248;42.138;24.742;2023-04-15T09:32:55;10.95;;;3.33;;
79759;SDS011;69248;42.138;24.742;2023-04-15T09:35:24;5.55;;;3.65;;
79759;SDS011;69248;42.138;24.742;2023-04-15T09:37:53;8.60;;;4.17;;
79759;SDS011;69248;42.138;24.742;2023-04-15T09:40:34;15.10;;;3.85;;
79759;SDS011;69248;42.138;24.742;2023-04-15T09:43:08;6.83;;;4.50;;
79759;SDS011;69248;42.138;24.742;2023-04-15T09:45:46;8.25;;;4.35;;
79759;SDS011;69248;42.138;24.742;2023-04-15T09:48:15;7.55;;;3.17;;
79759;SDS011;69248;42.138;24.742;2023-04-15T09:50:46;5.85;;;3.37;;
79759;SDS011;69248;42.138;24.742;2023-04-15T09:53:19;9.45;;;3.60;;
79759;SDS011;69248;42.138;24.742;2023-04-15T09:55:52;9.43;;;3.87;;
79759;SDS011;69248;42.138;24.742;2023-04-15T09:58:26;5.37;;;2.70;;
79759;SDS011;69248;42.138;24.742;2023-04-15T10:00:54;6.15;;;3.50;;
79759;SDS011;69248;42.138;24.742;2023-04-15T10:03:24;9.80;;;4.03;;
79759;SDS011;69248;42.138;24.742;2023-04-15T10:05:54;10.18;;;3.08;;
79759;SDS011;69248;42.138;24.742;2023-04-15T10:08:23;6.60;;;3.65;;
79759;SDS011;69248;42.138;24.742;2023-04-15T10:10:53;9.13;;;3.33;;
79759;SDS011;69248;42.138;24.742;2023-04-15T10:13:22;7.75;;;3.30;;
79759;SDS011;69248;42.138;24.742;2023-04-15T10:16:04;8.60;;;2.72;;
79759;SDS011;69248;42.138;24.742;2023-04-15T10:18:37;6.00;;;2.62;;
79759;SDS011;69248;42.138;24.742;2023-04-15T10:21:06;5.83;;;2.27;;
79759;SDS011;69248;42.138;24.742;2023-04-15T10:23:35;6.87;;;2.65;;
79759;SDS011;69248;42.138;24.742;2023-04-15T10:26:03;4.58;;;2.77;;
79759;SDS011;69248;42.138;24.742;2023-04-15T10:28:32;5.50;;;2.05;;
79759;SDS011;69248;42.138;24.742;2023-04-15T10:31:00;7.15;;;2.30;;
79759;SDS011;69248;42.138;24.742;2023-04-15T10:33:28;12.18;;;3.45;;
79759;SDS011;69248;42.138;24.742;2023-04-15T10:35:56;17.37;;;3.60;;
79759;SDS011;69248;42.138;24.742;2023-04-15T10:43:50;7.30;;;2.20;;
79759;SDS011;69248;42.138;24.742;2023-04-15T10:46:20;13.85;;;2.90;;
79759;SDS011;69248;42.138;24.742;2023-04-15T10:48:54;8.30;;;3.95;;
79759;SDS011;69248;42.138;24.742;2023-04-15T10:51:29;5.03;;;3.80;;
79759;SDS011;69248;42.138;24.742;2023-04-15T10:54:02;6.92;;;4.08;;
79759;SDS011;69248;42.138;24.742;2023-04-15T10:56:29;9.58;;;3.90;;
79759;SDS011;69248;42.138;24.742;2023-04-15T10:58:59;7.87;;;4.67;;
79759;SDS011;69248;42.138;24.742;2023-04-15T11:04:49;10.43;;;4.92;;
79759;SDS011;69248;42.138;24.742;2023-04-15T11:07:06;7.65;;;5.22;;
79759;SDS011;69248;42.138;24.742;2023-04-15T11:09:33;8.45;;;4.12;;
79759;SDS011;69248;42.138;24.742;2023-04-15T11:12:04;9.78;;;5.08;;
79759;SDS011;69248;42.138;24.742;2023-04-15T11:14:38;9.00;;;5.60;;
79759;SDS011;69248;42.138;24.742;2023-04-15T11:17:08;8.53;;;5.50;;
79759;SDS011;69248;42.138;24.742;2023-04-15T11:19:36;10.05;;;5.40;;
79759;SDS011;69248;42.138;24.742;2023-04-15T11:22:12;7.58;;;3.70;;
79759;SDS011;69248;42.138;24.742;2023-04-15T11:24:45;10.08;;;5.58;;
79759;SDS011;69248;42.138;24.742;2023-04-15T11:27:26;7.03;;;4.12;;
79759;SDS011;69248;42.138;24.742;2023-04-15T11:29:49;7.80;;;4.85;;
79759;SDS011;69248;42.138;24.742;2023-04-15T11:32:17;7.55;;;4.95;;
79759;SDS011;69248;42.138;24.742;2023-04-15T11:34:47;8.88;;;4.80;;
79759;SDS011;69248;42.138;24.742;2023-04-15T11:37:14;9.05;;;5.37;;
79759;SDS011;69248;42.138;24.742;2023-04-15T11:39:42;9.55;;;4.90;;
79759;SDS011;69248;42.138;24.742;2023-04-15T11:42:16;8.50;;;5.30;;
79759;SDS011;69248;42.138;24.742;2023-04-15T11:44:43;8.38;;;4.25;;
79759;SDS011;69248;42.138;24.742;2023-04-15T11:47:23;9.80;;;4.80;;
79759;SDS011;69248;42.138;24.742;2023-04-15T11:49:50;7.70;;;4.55;;
79759;SDS011;69248;42.138;24.742;2023-04-15T11:52:18;6.65;;;3.98;;
79759;SDS011;69248;42.138;24.742;2023-04-15T11:54:46;9.80;;;4.70;;
79759;SDS011;69248;42.138;24.742;2023-04-15T11:57:13;6.40;;;4.50;;
79759;SDS011;69248;42.138;24.742;2023-04-15T11:59:41;7.65;;;4.95;;
79759;SDS011;69248;42.138;24.742;2023-04-15T12:02:12;10.38;;;4.40;;
79759;SDS011;69248;42.138;24.742;2023-04-15T12:04:40;7.58;;;4.40;;
79759;SDS011;69248;42.138;24.742;2023-04-15T12:07:07;5.20;;;4.17;;
79759;SDS011;69248;42.138;24.742;2023-04-15T12:09:38;7.25;;;4.15;;
79759;SDS011;69248;42.138;24.742;2023-04-15T12:12:06;4.53;;;3.50;;
79759;SDS011;69248;42.138;24.742;2023-04-15T12:14:33;5.67;;;3.75;;
79759;SDS011;69248;42.138;24.742;2023-04-15T12:17:03;4.28;;;3.20;;
79759;SDS011;69248;42.138;24.742;2023-04-15T12:19:36;11.20;;;3.10;;
79759;SDS011;69248;42.138;24.742;2023-04-15T12:22:10;10.30;;;2.90;;
79759;SDS011;69248;42.138;24.742;2023-04-15T12:24:38;5.17;;;2.52;;
79759;SDS011;69248;42.138;24.742;2023-04-15T12:27:10;6.25;;;3.17;;
79759;SDS011;69248;42.138;24.742;2023-04-15T12:29:39;7.87;;;2.90;;
79759;SDS011;69248;42.138;24.742;2023-04-15T12:32:11;6.13;;;3.20;;
79759;SDS011;69248;42.138;24.742;2023-04-15T12:34:41;5.55;;;2.62;;
79759;SDS011;69248;42.138;24.742;2023-04-15T12:37:12;4.80;;;2.30;;
79759;SDS011;69248;42.138;24.742;2023-04-15T12:39:41;7.05;;;2.72;;
79759;SDS011;69248;42.138;24.742;2023-04-15T12:42:10;5.60;;;2.53;;
79759;SDS011;69248;42.138;24.742;2023-04-15T12:44:38;7.00;;;2.92;;
79759;SDS011;69248;42.138;24.742;2023-04-15T12:47:06;6.78;;;2.25;;
79759;SDS011;69248;42.138;24.742;2023-04-15T12:49:34;3.58;;;1.75;;
79759;SDS011;69248;42.138;24.742;2023-04-15T12:52:02;6.22;;;1.67;;
79759;SDS011;69248;42.138;24.742;2023-04-15T12:54:30;8.13;;;2.52;;
79759;SDS011;69248;42.138;24.742;2023-04-15T12:56:59;6.72;;;2.50;;
79759;SDS011;69248;42.138;24.742;2023-04-15T12:59:27;4.62;;;2.10;;
79759;SDS011;69248;42.138;24.742;2023-04-15T13:01:55;5.55;;;2.50;;
79759;SDS011;69248;42.138;24.742;2023-04-15T13:04:24;4.35;;;2.47;;
79759;SDS011;69248;42.138;24.742;2023-04-15T13:06:53;7.10;;;2.65;;
79759;SDS011;69248;42.138;24.742;2023-04-15T13:09:21;12.40;;;4.45;;
79759;SDS011;69248;42.138;24.742;2023-04-15T13:11:49;7.17;;;2.65;;
79759;SDS011;69248;42.138;24.742;2023-04-15T13:14:17;4.15;;;2.10;;
79759;SDS011;69248;42.138;24.742;2023-04-15T13:16:44;7.67;;;3.02;;
79759;SDS011;69248;42.138;24.742;2023-04-15T13:19:12;7.05;;;2.52;;
79759;SDS011;69248;42.138;24.742;2023-04-15T13:21:40;6.62;;;2.35;;
79759;SDS011;69248;42.138;24.742;2023-04-15T13:24:08;6.83;;;2.47;;
79759;SDS011;69248;42.138;24.742;2023-04-15T13:26:35;4.85;;;2.10;;
79759;SDS011;69248;42.138;24.742;2023-04-15T13:29:03;7.15;;;2.30;;
79759;SDS011;69248;42.138;24.742;2023-04-15T13:31:30;6.30;;;2.60;;
79759;SDS011;69248;42.138;24.742;2023-04-15T13:33:58;6.60;;;2.67;;
79759;SDS011;69248;42.138;24.742;2023-04-15T13:36:25;6.50;;;2.50;;
79759;SDS011;69248;42.138;24.742;2023-04-15T13:38:53;5.72;;;2.65;;
79759;SDS011;69248;42.138;24.742;2023-04-15T13:41:21;6.55;;;2.45;;
79759;SDS011;69248;42.138;24.742;2023-04-15T13:43:48;6.83;;;1.92;;
79759;SDS011;69248;42.138;24.742;2023-04-15T13:46:16;3.37;;;1.72;;
79759;SDS011;69248;42.138;24.742;2023-04-15T13:48:43;5.10;;;2.27;;
79759;SDS011;69248;42.138;24.742;2023-04-15T13:51:11;6.72;;;3.12;;
79759;SDS011;69248;42.138;24.742;2023-04-15T13:53:38;4.60;;;2.12;;
79759;SDS011;69248;42.138;24.742;2023-04-15T13:56:06;3.72;;;2.55;;
79759;SDS011;69248;42.138;24.742;2023-04-15T13:58:34;9.05;;;2.27;;
79759;SDS011;69248;42.138;24.742;2023-04-15T14:01:03;5.72;;;2.70;;
79759;SDS011;69248;42.138;24.742;2023-04-15T14:03:31;6.42;;;1.95;;
79759;SDS011;69248;42.138;24.742;2023-04-15T14:06:01;9.63;;;2.37;;
79759;SDS011;69248;42.138;24.742;2023-04-15T14:08:28;6.75;;;2.22;;
79759;SDS011;69248;42.138;24.742;2023-04-15T14:10:56;8.10;;;2.95;;
79759;SDS011;69248;42.138;24.742;2023-04-15T14:13:23;7.53;;;2.15;;
79759;SDS011;69248;42.138;24.742;2023-04-15T14:15:51;7.55;;;2.20;;
79759;SDS011;69248;42.138;24.742;2023-04-15T14:18:20;7.60;;;2.10;;
79759;SDS011;69248;42.138;24.742;2023-04-15T14:20:48;6.17;;;2.55;;
79759;SDS011;69248;42.138;24.742;2023-04-15T14:23:15;17.40;;;2.92;;
79759;SDS011;69248;42.138;24.742;2023-04-15T14:25:43;5.53;;;2.77;;
79759;SDS011;69248;42.138;24.742;2023-04-15T14:28:10;6.60;;;1.90;;
79759;SDS011;69248;42.138;24.742;2023-04-15T14:30:38;6.30;;;1.98;;
79759;SDS011;69248;42.138;24.742;2023-04-15T14:33:05;7.15;;;3.15;;
79759;SDS011;69248;42.138;24.742;2023-04-15T14:35:33;8.63;;;2.37;;
79759;SDS011;69248;42.138;24.742;2023-04-15T14:38:01;3.85;;;2.08;;
79759;SDS011;69248;42.138;24.742;2023-04-15T14:40:28;7.92;;;2.12;;
79759;SDS011;69248;42.138;24.742;2023-04-15T14:42:56;5.45;;;2.40;;
79759;SDS011;69248;42.138;24.742;2023-04-15T14:45:24;6.33;;;2.12;;
79759;SDS011;69248;42.138;24.742;2023-04-15T14:47:51;5.30;;;2.35;;